createdAt,value
2023-05-06T00:01:13.961Z,7.37
2023-05-06T00:03:41.875Z,7.62
2023-05-06T00:06:09.787Z,7.20
2023-05-06T00:08:37.573Z,5.83
2023-05-06T00:11:05.448Z,6.40
2023-05-06T00:13:33.288Z,5.67
2023-05-06T00:16:00.898Z,5.40
2023-05-06T00:18:28.489Z,5.03
2023-05-06T00:20:56.492Z,4.62
2023-05-06T00:23:24.077Z,4.20
2023-05-06T00:25:54.236Z,4.08
2023-05-06T00:28:21.989Z,4.12
2023-05-06T00:30:49.579Z,4.30
2023-05-06T00:33:17.058Z,3.95
2023-05-06T00:35:44.572Z,4.17
2023-05-06T00:38:14.986Z,4.15
2023-05-06T00:40:42.924Z,3.85
2023-05-06T00:43:11.023Z,4.17
2023-05-06T00:45:38.986Z,4.05
2023-05-06T00:48:07.708Z,4.37
2023-05-06T00:50:35.665Z,4.22
2023-05-06T00:53:05.432Z,4.30
2023-05-06T00:55:33.175Z,3.98
2023-05-06T00:58:01.014Z,4.00
2023-05-06T01:00:28.752Z,4.17
2023-05-06T01:02:56.937Z,4.08
2023-05-06T01:05:29.523Z,3.95
2023-05-06T01:08:23.119Z,3.87
2023-05-06T01:10:59.833Z,4.45
2023-05-06T01:13:59.796Z,4.22
2023-05-06T01:16:30.254Z,4.28
2023-05-06T01:19:00.036Z,4.45
2023-05-06T01:21:31.784Z,5.12
2023-05-06T01:23:59.426Z,4.45
2023-05-06T01:26:27.252Z,4.60
2023-05-06T01:28:56.100Z,4.47
2023-05-06T01:31:27.243Z,4.97
2023-05-06T01:34:24.182Z,5.83
2023-05-06T01:37:36.617Z,5.65
2023-05-06T01:40:07.147Z,7.40
2023-05-06T01:42:36.822Z,7.75
2023-05-06T01:45:07.414Z,23.70
2023-05-06T01:47:36.500Z,25.75
2023-05-06T01:50:05.396Z,21.87
2023-05-06T01:52:34.075Z,19.17
2023-05-06T01:55:02.074Z,16.87
2023-05-06T01:57:29.773Z,13.70
2023-05-06T01:59:57.561Z,11.43
2023-05-06T02:02:25.306Z,11.03
2023-05-06T02:04:53.532Z,11.08
2023-05-06T02:07:21.073Z,11.05
2023-05-06T02:09:48.756Z,10.90
2023-05-06T02:12:16.655Z,9.88
2023-05-06T02:14:44.217Z,7.75
2023-05-06T02:17:11.984Z,8.10
2023-05-06T02:19:39.633Z,7.60
2023-05-06T02:22:07.324Z,7.87
2023-05-06T02:24:35.089Z,8.50
2023-05-06T02:27:03.683Z,7.95
2023-05-06T02:29:31.337Z,6.70
2023-05-06T02:31:58.741Z,7.28
2023-05-06T02:34:26.081Z,6.80
2023-05-06T02:36:53.979Z,5.28
2023-05-06T02:39:23.863Z,5.35
2023-05-06T02:41:51.605Z,5.17
2023-05-06T02:44:18.967Z,5.85
2023-05-06T02:46:46.324Z,4.70
2023-05-06T02:49:14.026Z,4.85
2023-05-06T02:51:42.109Z,4.25
2023-05-06T02:54:09.779Z,4.80
2023-05-06T02:56:37.402Z,4.60
2023-05-06T02:59:05.657Z,5.55
2023-05-06T03:01:33.499Z,7.80
2023-05-06T03:04:01.145Z,10.03
2023-05-06T03:06:28.885Z,12.18
2023-05-06T03:08:56.987Z,12.78
2023-05-06T03:11:25.113Z,12.78
2023-05-06T03:13:54.200Z,12.50
2023-05-06T03:16:21.932Z,11.03
2023-05-06T03:18:51.478Z,9.88
2023-05-06T03:21:19.445Z,8.80
2023-05-06T03:23:47.646Z,9.10
2023-05-06T03:26:15.662Z,8.53
2023-05-06T03:28:44.150Z,7.30
2023-05-06T03:31:12.894Z,7.10
2023-05-06T03:33:40.522Z,7.05
2023-05-06T03:36:09.031Z,6.85
2023-05-06T03:38:36.768Z,7.72
2023-05-06T03:41:05.941Z,7.10
2023-05-06T03:43:33.774Z,7.53
2023-05-06T03:46:03.320Z,7.30
2023-05-06T03:48:31.609Z,7.30
2023-05-06T03:50:59.402Z,7.80
2023-05-06T03:53:27.879Z,6.53
2023-05-06T03:55:55.945Z,6.45
2023-05-06T03:58:24.319Z,6.05
2023-05-06T04:00:51.936Z,5.55
2023-05-06T04:03:19.835Z,5.30
2023-05-06T04:05:50.591Z,4.92
2023-05-06T04:08:20.155Z,4.53
2023-05-06T04:10:49.663Z,5.05
2023-05-06T04:13:19.545Z,5.25
2023-05-06T04:15:49.636Z,6.17
2023-05-06T04:18:19.548Z,5.55
2023-05-06T04:20:50.830Z,6.62
2023-05-06T04:23:19.670Z,6.65
2023-05-06T04:25:48.304Z,6.22
2023-05-06T04:28:19.147Z,6.15
2023-05-06T04:30:48.969Z,5.80
2023-05-06T04:33:16.637Z,6.40
2023-05-06T04:35:53.753Z,6.08
2023-05-06T04:38:22.175Z,6.20
2023-05-06T04:40:50.494Z,6.33
2023-05-06T04:43:18.343Z,6.90
2023-05-06T04:45:48.743Z,6.70
2023-05-06T04:48:19.237Z,7.53
2023-05-06T04:50:47.436Z,5.25
2023-05-06T04:53:15.783Z,5.12
2023-05-06T04:55:43.745Z,4.28
2023-05-06T04:58:11.813Z,4.97
2023-05-06T05:00:39.805Z,5.10
2023-05-06T05:03:10.334Z,5.10
2023-05-06T05:05:40.646Z,5.33
2023-05-06T05:08:12.249Z,5.15
2023-05-06T05:10:43.966Z,4.25
2023-05-06T05:13:14.172Z,4.78
2023-05-06T05:15:42.348Z,4.78
2023-05-06T05:18:10.560Z,4.65
2023-05-06T05:20:38.042Z,4.30
2023-05-06T05:23:07.011Z,4.53
2023-05-06T05:25:35.003Z,4.45
2023-05-06T05:28:02.706Z,3.95
2023-05-06T05:30:31.229Z,3.87
2023-05-06T05:33:02.412Z,3.60
2023-05-06T05:35:31.812Z,4.05
2023-05-06T05:38:07.445Z,4.35
2023-05-06T05:40:38.793Z,4.15
2023-05-06T05:43:11.660Z,4.17
2023-05-06T05:45:40.399Z,4.20
2023-05-06T05:48:09.395Z,4.55
2023-05-06T05:50:37.282Z,4.20
2023-05-06T05:53:06.487Z,4.05
2023-05-06T05:55:39.628Z,4.03
2023-05-06T05:58:07.241Z,3.72
2023-05-06T06:00:35.296Z,4.40
2023-05-06T06:03:07.052Z,4.03
2023-05-06T06:05:35.319Z,5.42
2023-05-06T06:08:03.899Z,4.47
2023-05-06T06:10:32.782Z,4.10
2023-05-06T06:13:03.408Z,4.37
2023-05-06T06:15:32.106Z,4.20
2023-05-06T06:18:02.641Z,3.90
2023-05-06T06:20:31.131Z,3.77
2023-05-06T06:23:00.202Z,2.65
2023-05-06T06:25:28.024Z,3.50
2023-05-06T06:27:57.361Z,3.25
2023-05-06T06:30:33.738Z,2.70
2023-05-06T06:33:01.856Z,3.90
2023-05-06T06:35:29.762Z,3.65
2023-05-06T06:37:59.276Z,4.33
2023-05-06T06:40:27.071Z,3.77
2023-05-06T06:42:54.896Z,3.80
2023-05-06T06:45:45.522Z,3.40
2023-05-06T06:48:13.480Z,3.60
2023-05-06T06:50:41.315Z,3.95
2023-05-06T06:53:10.611Z,6.08
2023-05-06T06:55:38.016Z,4.10
2023-05-06T06:58:08.428Z,3.37
2023-05-06T07:00:36.541Z,4.22
2023-05-06T07:03:04.354Z,3.87
2023-05-06T07:05:33.877Z,3.70
2023-05-06T07:08:01.497Z,4.17
2023-05-06T07:10:36.770Z,3.50
2023-05-06T07:13:06.060Z,3.17
2023-05-06T07:15:33.912Z,3.47
2023-05-06T07:18:01.800Z,3.30
2023-05-06T07:20:30.329Z,2.90
2023-05-06T07:22:59.255Z,2.90
2023-05-06T07:25:27.640Z,3.00
2023-05-06T07:27:55.400Z,2.67
2023-05-06T07:30:24.193Z,2.47
2023-05-06T07:32:55.880Z,2.50
2023-05-06T07:35:33.248Z,2.87
2023-05-06T07:38:01.109Z,3.50
2023-05-06T07:40:30.666Z,2.90
2023-05-06T07:42:58.315Z,2.67
2023-05-06T07:45:26.095Z,2.65
2023-05-06T07:47:53.999Z,2.77
2023-05-06T07:50:31.564Z,2.65
2023-05-06T07:53:08.599Z,2.70
2023-05-06T07:55:37.296Z,3.30
2023-05-06T07:58:05.260Z,4.25
2023-05-06T08:00:36.165Z,2.58
2023-05-06T08:03:04.676Z,2.42
2023-05-06T08:05:32.715Z,2.92
2023-05-06T08:08:02.189Z,3.47
2023-05-06T08:10:30.271Z,2.55
2023-05-06T08:12:58.284Z,2.80
2023-05-06T08:15:26.367Z,2.20
2023-05-06T08:17:55.257Z,2.25
2023-05-06T08:20:23.231Z,2.20
2023-05-06T08:22:52.849Z,2.35
2023-05-06T08:25:20.872Z,2.15
2023-05-06T08:27:49.057Z,2.30
2023-05-06T08:30:26.840Z,1.98
2023-05-06T08:33:00.241Z,2.30
2023-05-06T08:35:27.876Z,2.22
2023-05-06T08:37:55.951Z,2.17
2023-05-06T08:40:27.615Z,2.10
2023-05-06T08:42:57.427Z,1.85
2023-05-06T08:45:26.777Z,1.90
2023-05-06T08:47:55.035Z,2.25
2023-05-06T08:50:23.916Z,2.45
2023-05-06T08:52:52.099Z,2.02
2023-05-06T08:55:21.851Z,2.17
2023-05-06T08:57:52.718Z,2.02
2023-05-06T09:00:20.550Z,1.92
2023-05-06T09:02:48.890Z,2.00
2023-05-06T09:05:17.217Z,2.30
2023-05-06T09:07:44.867Z,2.05
2023-05-06T09:10:14.020Z,2.02
2023-05-06T09:12:41.898Z,2.20
2023-05-06T09:15:11.516Z,2.20
2023-05-06T09:17:39.743Z,2.00
2023-05-06T09:20:17.529Z,2.05
2023-05-06T09:22:48.570Z,2.05
2023-05-06T09:25:18.284Z,2.10
2023-05-06T09:27:45.739Z,2.37
2023-05-06T09:30:14.687Z,1.90
2023-05-06T09:32:42.342Z,1.98
2023-05-06T09:35:11.443Z,1.95
2023-05-06T09:37:39.750Z,2.05
2023-05-06T09:40:08.818Z,2.30
2023-05-06T09:42:36.402Z,2.25
2023-05-06T09:45:10.748Z,1.95
2023-05-06T09:47:41.955Z,1.90
2023-05-06T09:50:13.602Z,2.40
2023-05-06T09:52:48.316Z,2.00
2023-05-06T09:55:20.029Z,2.10
2023-05-06T09:57:50.894Z,2.35
2023-05-06T10:00:21.794Z,2.05
2023-05-06T10:02:50.527Z,2.75
2023-05-06T10:05:18.757Z,2.30
2023-05-06T10:07:49.278Z,2.17
2023-05-06T10:10:18.420Z,2.08
2023-05-06T10:12:46.195Z,2.20
2023-05-06T10:15:14.049Z,2.33
2023-05-06T10:17:46.140Z,2.47
2023-05-06T10:20:14.746Z,2.17
2023-05-06T10:23:26.351Z,2.05
2023-05-06T10:25:58.303Z,2.10
2023-05-06T10:28:31.047Z,2.10
2023-05-06T10:31:04.788Z,2.75
2023-05-06T10:33:33.320Z,2.02
2023-05-06T10:36:23.438Z,1.90
2023-05-06T10:38:59.629Z,2.15
2023-05-06T10:41:28.821Z,2.05
2023-05-06T10:43:59.722Z,2.27
2023-05-06T10:46:30.143Z,2.20
2023-05-06T10:49:13.292Z,1.92
2023-05-06T10:51:43.207Z,2.02
2023-05-06T10:54:24.016Z,2.27
2023-05-06T10:56:57.720Z,2.40
2023-05-06T10:59:27.989Z,2.75
2023-05-06T11:02:07.432Z,2.40
2023-05-06T11:04:37.011Z,2.00
2023-05-06T11:07:15.764Z,2.15
2023-05-06T11:10:06.305Z,2.50
2023-05-06T11:12:52.141Z,2.45
2023-05-06T11:15:39.388Z,2.33
2023-05-06T11:18:34.032Z,2.10
2023-05-06T11:21:08.969Z,2.47
2023-05-06T11:23:51.969Z,2.20
2023-05-06T11:26:21.318Z,2.55
2023-05-06T11:28:53.183Z,3.42
2023-05-06T11:31:26.088Z,3.45
2023-05-06T11:34:00.391Z,2.98
2023-05-06T11:36:34.909Z,2.37
2023-05-06T11:39:10.591Z,2.58
2023-05-06T11:41:44.676Z,2.98
2023-05-06T11:44:16.086Z,3.00
2023-05-06T11:46:47.313Z,2.75
2023-05-06T11:49:14.908Z,2.87
2023-05-06T11:51:48.169Z,2.70
2023-05-06T11:54:19.433Z,3.15
2023-05-06T11:56:53.733Z,3.70
2023-05-06T11:59:33.558Z,2.62
2023-05-06T12:02:12.230Z,3.20
2023-05-06T12:04:49.670Z,3.58
2023-05-06T12:07:17.982Z,3.33
2023-05-06T12:09:50.502Z,3.08
2023-05-06T12:12:24.950Z,3.70
2023-05-06T12:14:53.659Z,3.52
2023-05-06T12:17:22.260Z,3.33
2023-05-06T12:19:55.256Z,3.22
2023-05-06T12:22:26.320Z,3.50
2023-05-06T12:24:54.288Z,3.20
2023-05-06T12:27:34.071Z,3.77
2023-05-06T12:30:03.899Z,2.65
2023-05-06T12:32:31.927Z,3.17
2023-05-06T12:35:06.468Z,4.17
2023-05-06T12:37:38.741Z,2.77
2023-05-06T12:40:15.230Z,3.02
2023-05-06T12:42:43.100Z,2.80
2023-05-06T12:45:15.376Z,2.70
2023-05-06T12:47:57.660Z,3.08
2023-05-06T12:50:41.172Z,3.15
2023-05-06T12:53:12.720Z,3.45
2023-05-06T12:55:41.616Z,3.35
2023-05-06T12:58:19.028Z,2.95
2023-05-06T13:00:46.877Z,3.33
2023-05-06T13:03:15.292Z,2.60
2023-05-06T13:05:46.302Z,2.67
2023-05-06T13:08:16.431Z,2.30
2023-05-06T13:10:44.202Z,3.83
2023-05-06T13:13:13.582Z,3.10
2023-05-06T13:15:41.245Z,3.20
2023-05-06T13:18:09.296Z,2.83
2023-05-06T13:20:36.974Z,3.15
2023-05-06T13:23:04.470Z,2.60
2023-05-06T13:25:32.017Z,3.58
2023-05-06T13:27:59.499Z,3.62
2023-05-06T13:30:27.276Z,2.35
2023-05-06T13:32:54.818Z,2.77
2023-05-06T13:35:22.477Z,3.20
2023-05-06T13:37:50.313Z,3.05
2023-05-06T13:40:18.093Z,3.15
2023-05-06T13:42:46.060Z,3.92
2023-05-06T13:45:14.251Z,3.10
2023-05-06T13:47:42.544Z,3.47
2023-05-06T13:50:10.969Z,3.15
2023-05-06T13:52:38.863Z,2.70
2023-05-06T13:55:08.702Z,3.12
2023-05-06T13:57:36.474Z,3.22
2023-05-06T14:00:06.673Z,2.72
2023-05-06T14:02:34.520Z,2.98
2023-05-06T14:05:02.304Z,2.80
2023-05-06T14:07:30.096Z,2.87
2023-05-06T14:09:58.015Z,3.30
2023-05-06T14:12:25.712Z,2.85
2023-05-06T14:14:54.965Z,2.77
2023-05-06T14:17:22.611Z,2.90
2023-05-06T14:19:50.219Z,3.62
2023-05-06T14:22:18.137Z,2.90
2023-05-06T14:24:45.870Z,3.12
2023-05-06T14:27:13.782Z,3.00
2023-05-06T14:29:42.619Z,2.92
2023-05-06T14:32:10.472Z,3.12
2023-05-06T14:34:38.423Z,2.90
2023-05-06T14:37:06.227Z,3.20
2023-05-06T14:39:33.647Z,3.33
2023-05-06T14:42:01.352Z,3.20
2023-05-06T14:44:29.038Z,3.15
2023-05-06T14:46:56.723Z,3.02
2023-05-06T14:49:24.383Z,3.20
2023-05-06T14:51:51.978Z,3.70
2023-05-06T14:54:19.686Z,2.90
2023-05-06T14:56:48.928Z,3.40
2023-05-06T14:59:18.602Z,3.12
2023-05-06T15:01:46.233Z,2.75
2023-05-06T15:04:13.737Z,3.40
2023-05-06T15:06:41.712Z,2.75
2023-05-06T15:09:09.833Z,2.77
2023-05-06T15:11:37.746Z,3.00
2023-05-06T15:14:05.580Z,3.30
2023-05-06T15:16:33.516Z,3.15
2023-05-06T15:19:01.357Z,3.37
2023-05-06T15:21:29.072Z,3.12
2023-05-06T15:23:56.972Z,3.02
2023-05-06T15:26:24.702Z,3.33
2023-05-06T15:28:52.267Z,2.50
2023-05-06T15:31:20.861Z,3.20
2023-05-06T15:33:48.763Z,2.87
2023-05-06T15:36:16.300Z,2.90
2023-05-06T15:38:59.797Z,2.72
2023-05-06T15:41:29.801Z,3.30
2023-05-06T15:44:02.591Z,2.80
2023-05-06T15:46:31.498Z,3.22
2023-05-06T15:49:15.665Z,2.92
2023-05-06T15:51:30.907Z,3.15
2023-05-06T15:53:58.547Z,3.02
2023-05-06T15:56:26.993Z,3.08
2023-05-06T15:58:55.337Z,3.12
2023-05-06T16:01:48.008Z,3.37
2023-05-06T16:03:53.072Z,3.17
2023-05-06T16:06:21.092Z,3.40
2023-05-06T16:08:48.415Z,3.10
2023-05-06T16:11:16.010Z,3.27
2023-05-06T16:13:44.021Z,2.92
2023-05-06T16:16:12.720Z,3.00
2023-05-06T16:18:40.214Z,2.98
2023-05-06T16:21:07.505Z,3.70
2023-05-06T16:23:36.210Z,3.17
2023-05-06T16:26:04.291Z,3.33
2023-05-06T16:28:31.954Z,4.05
2023-05-06T16:31:03.163Z,3.45
2023-05-06T16:33:30.693Z,5.50
2023-05-06T16:36:02.322Z,3.40
2023-05-06T16:38:31.535Z,3.37
2023-05-06T16:40:59.334Z,3.75
2023-05-06T16:43:40.023Z,3.30
2023-05-06T16:46:09.275Z,3.50
2023-05-06T16:48:37.435Z,3.60
2023-05-06T16:51:09.631Z,3.50
2023-05-06T16:53:37.103Z,4.08
2023-05-06T16:56:50.879Z,3.83
2023-05-06T16:59:04.313Z,4.05
2023-05-06T17:01:32.012Z,3.85
2023-05-06T17:03:59.790Z,4.10
2023-05-06T17:06:38.705Z,4.00
2023-05-06T17:09:06.425Z,6.03
2023-05-06T17:11:34.203Z,4.37
2023-05-06T17:14:01.659Z,5.85
2023-05-06T17:16:29.450Z,6.33
2023-05-06T17:18:56.846Z,15.32
2023-05-06T17:21:24.352Z,4.72
2023-05-06T17:23:53.803Z,4.60
2023-05-06T17:26:21.849Z,4.58
2023-05-06T17:28:50.505Z,4.78
2023-05-06T17:31:18.452Z,5.28
2023-05-06T17:33:47.487Z,7.15
2023-05-06T17:36:17.510Z,5.47
2023-05-06T17:38:45.556Z,5.55
2023-05-06T17:41:13.241Z,5.97
2023-05-06T17:43:42.452Z,5.75
2023-05-06T17:46:10.275Z,5.55
2023-05-06T17:48:38.271Z,6.60
2023-05-06T17:51:05.979Z,9.30
2023-05-06T17:53:33.573Z,9.93
2023-05-06T17:56:01.248Z,8.60
2023-05-06T17:58:28.991Z,8.55
2023-05-06T18:00:57.067Z,9.28
2023-05-06T18:03:25.277Z,8.95
2023-05-06T18:05:52.895Z,11.90
2023-05-06T18:08:20.405Z,14.83
2023-05-06T18:10:50.161Z,12.85
2023-05-06T18:13:18.384Z,11.68
2023-05-06T18:15:48.058Z,10.35
2023-05-06T18:18:16.055Z,9.98
2023-05-06T18:20:43.624Z,9.35
2023-05-06T18:23:11.406Z,9.40
2023-05-06T18:25:39.693Z,9.33
2023-05-06T18:28:08.100Z,10.15
2023-05-06T18:30:36.082Z,9.98
2023-05-06T18:33:03.790Z,10.15
2023-05-06T18:35:31.523Z,10.23
2023-05-06T18:37:59.087Z,10.03
2023-05-06T18:40:28.608Z,9.83
2023-05-06T18:42:56.223Z,10.20
2023-05-06T18:45:28.013Z,9.50
2023-05-06T18:47:55.633Z,9.43
2023-05-06T18:50:24.169Z,9.10
2023-05-06T18:52:53.549Z,8.80
2023-05-06T18:55:24.617Z,8.40
2023-05-06T18:57:52.343Z,8.10
2023-05-06T19:00:21.873Z,8.03
2023-05-06T19:02:51.507Z,8.60
2023-05-06T19:05:20.443Z,7.22
2023-05-06T19:07:50.672Z,8.23
2023-05-06T19:10:18.766Z,8.15
2023-05-06T19:12:46.414Z,8.80
2023-05-06T19:15:16.902Z,8.25
2023-05-06T19:17:47.264Z,10.13
2023-05-06T19:20:14.852Z,9.58
2023-05-06T19:22:42.695Z,9.73
2023-05-06T19:25:11.110Z,9.18
2023-05-06T19:27:41.221Z,8.90
2023-05-06T19:30:09.737Z,8.15
2023-05-06T19:32:37.980Z,7.87
2023-05-06T19:35:10.453Z,8.23
2023-05-06T19:37:38.386Z,8.83
2023-05-06T19:40:07.421Z,8.30
2023-05-06T19:42:35.410Z,7.58
2023-05-06T19:45:10.197Z,6.28
2023-05-06T19:47:38.337Z,5.12
2023-05-06T19:50:07.324Z,4.35
2023-05-06T19:52:41.321Z,4.00
2023-05-06T19:55:10.389Z,3.70
2023-05-06T19:57:38.009Z,3.98
2023-05-06T20:00:13.848Z,3.62
2023-05-06T20:02:44.062Z,3.52
2023-05-06T20:05:12.480Z,3.90
2023-05-06T20:07:40.853Z,4.20
2023-05-06T20:10:10.036Z,3.95
2023-05-06T20:12:37.776Z,3.83
2023-05-06T20:15:06.920Z,4.10
2023-05-06T20:17:39.214Z,4.42
2023-05-06T20:20:10.593Z,4.20
2023-05-06T20:22:39.753Z,5.78
2023-05-06T20:25:18.145Z,6.72
2023-05-06T20:27:45.946Z,6.33
2023-05-06T20:30:13.872Z,6.05
2023-05-06T20:32:41.413Z,6.50
2023-05-06T20:35:09.521Z,6.72
2023-05-06T20:37:38.157Z,6.33
2023-05-06T20:40:07.325Z,6.20
2023-05-06T20:42:35.105Z,6.72
2023-05-06T20:45:05.438Z,7.08
2023-05-06T20:47:33.062Z,5.90
2023-05-06T20:50:01.192Z,5.75
2023-05-06T20:52:29.031Z,6.47
2023-05-06T20:54:57.707Z,7.55
2023-05-06T20:57:25.400Z,7.37
2023-05-06T20:59:55.660Z,6.45
2023-05-06T21:02:23.394Z,8.05
2023-05-06T21:04:51.263Z,8.18
2023-05-06T21:07:18.867Z,7.37
2023-05-06T21:09:46.634Z,9.25
2023-05-06T21:12:20.575Z,7.80
2023-05-06T21:14:48.304Z,7.67
2023-05-06T21:17:16.008Z,7.00
2023-05-06T21:19:43.646Z,7.05
2023-05-06T21:22:12.183Z,6.33
2023-05-06T21:24:39.837Z,6.60
2023-05-06T21:27:07.872Z,6.37
2023-05-06T21:29:36.524Z,6.70
2023-05-06T21:32:04.756Z,6.55
2023-05-06T21:34:32.496Z,6.22
2023-05-06T21:37:00.337Z,6.10
2023-05-06T21:39:28.167Z,5.95
2023-05-06T21:41:56.004Z,6.30
2023-05-06T21:44:23.549Z,6.45
2023-05-06T21:46:51.513Z,6.95
2023-05-06T21:49:21.548Z,6.90
2023-05-06T21:51:49.253Z,6.83
2023-05-06T21:54:17.231Z,7.70
2023-05-06T21:56:44.818Z,6.85
2023-05-06T21:59:12.810Z,6.60
2023-05-06T22:01:41.150Z,7.42
2023-05-06T22:04:12.360Z,6.42
2023-05-06T22:06:40.425Z,7.00
2023-05-06T22:09:09.312Z,5.87
2023-05-06T22:11:38.272Z,5.60
2023-05-06T22:14:06.906Z,6.28
2023-05-06T22:16:37.322Z,5.55
2023-05-06T22:19:05.732Z,4.80
2023-05-06T22:21:36.904Z,4.87
2023-05-06T22:24:05.582Z,5.08
2023-05-06T22:26:33.530Z,5.28
2023-05-06T22:29:00.873Z,5.20
2023-05-06T22:31:28.534Z,5.00
2023-05-06T22:33:57.423Z,5.00
2023-05-06T22:36:28.851Z,5.83
2023-05-06T22:38:56.393Z,5.55
2023-05-06T22:41:24.228Z,6.12
2023-05-06T22:43:52.230Z,5.87
2023-05-06T22:46:20.713Z,6.72
2023-05-06T22:48:48.571Z,6.45
2023-05-06T22:51:16.840Z,6.60
2023-05-06T22:53:44.751Z,6.75
2023-05-06T22:56:12.194Z,5.87
2023-05-06T22:58:39.709Z,6.22
2023-05-06T23:01:07.757Z,6.33
2023-05-06T23:03:36.200Z,5.90
2023-05-06T23:06:05.470Z,6.47
2023-05-06T23:08:33.443Z,6.03
2023-05-06T23:11:01.366Z,5.60
2023-05-06T23:13:30.710Z,5.75
2023-05-06T23:16:00.088Z,5.92
2023-05-06T23:18:28.013Z,5.53
2023-05-06T23:21:00.018Z,5.80
2023-05-06T23:23:31.141Z,5.50
2023-05-06T23:26:00.487Z,5.37
2023-05-06T23:28:30.219Z,5.20
2023-05-06T23:30:57.923Z,4.78
2023-05-06T23:33:27.439Z,4.45
2023-05-06T23:35:55.295Z,4.60
2023-05-06T23:38:22.883Z,4.33
2023-05-06T23:40:50.653Z,4.58
2023-05-06T23:43:18.417Z,4.08
2023-05-06T23:45:46.311Z,4.53
2023-05-06T23:48:18.397Z,4.28
2023-05-06T23:50:49.629Z,4.50
2023-05-06T23:53:21.006Z,4.80
2023-05-06T23:55:50.742Z,5.05
2023-05-06T23:58:18.748Z,5.10
